createdAt,value
2022-12-14T00:02:01.045Z,16.27
2022-12-14T00:05:07.717Z,16.23
2022-12-14T00:08:16.467Z,15.25
2022-12-14T00:11:28.330Z,13.53
2022-12-14T00:14:38.919Z,13.05
2022-12-14T00:17:50.270Z,13.20
2022-12-14T00:20:59.033Z,11.80
2022-12-14T00:24:09.925Z,11.68
2022-12-14T00:27:17.959Z,10.48
2022-12-14T00:30:28.894Z,11.28
2022-12-14T00:33:35.229Z,9.90
2022-12-14T00:36:45.229Z,9.05
2022-12-14T00:39:52.703Z,9.10
2022-12-14T00:43:01.111Z,8.53
2022-12-14T00:46:09.916Z,7.62
2022-12-14T00:49:16.939Z,7.45
2022-12-14T00:52:26.065Z,7.50
2022-12-14T00:55:32.663Z,7.75
2022-12-14T00:58:40.795Z,7.00
2022-12-14T01:01:51.875Z,6.55
2022-12-14T01:05:00.270Z,6.65
2022-12-14T01:08:07.851Z,6.62
2022-12-14T01:11:20.998Z,6.95
2022-12-14T01:14:34.587Z,7.20
2022-12-14T01:17:43.714Z,5.90
2022-12-14T01:20:53.983Z,5.53
2022-12-14T01:24:09.724Z,5.70
2022-12-14T01:27:20.358Z,5.72
2022-12-14T01:30:29.342Z,5.85
2022-12-14T01:33:37.243Z,6.15
2022-12-14T01:36:46.361Z,5.62
2022-12-14T01:39:52.656Z,5.62
2022-12-14T01:43:00.536Z,5.40
2022-12-14T01:46:11.503Z,6.20
2022-12-14T01:49:24.718Z,6.17
2022-12-14T01:52:37.792Z,6.08
2022-12-14T01:55:53.557Z,6.28
2022-12-14T01:59:05.316Z,5.80
2022-12-14T02:02:15.485Z,5.83
2022-12-14T02:05:23.407Z,5.60
2022-12-14T02:08:31.691Z,6.20
2022-12-14T02:11:58.717Z,6.65
2022-12-14T02:15:05.070Z,6.55
2022-12-14T02:18:22.212Z,6.80
2022-12-14T02:22:01.935Z,6.67
2022-12-14T02:25:50.979Z,7.47
2022-12-14T02:29:11.196Z,7.05
2022-12-14T02:33:11.121Z,7.87
2022-12-14T02:36:28.614Z,7.40
2022-12-14T02:40:09.329Z,7.87
2022-12-14T02:43:36.857Z,7.60
2022-12-14T02:46:57.283Z,8.13
2022-12-14T02:50:34.205Z,7.72
2022-12-14T02:53:48.683Z,8.03
2022-12-14T02:57:02.582Z,8.03
2022-12-14T03:00:14.171Z,9.08
2022-12-14T03:03:24.296Z,9.58
2022-12-14T03:06:35.037Z,9.45
2022-12-14T03:09:43.811Z,9.10
2022-12-14T03:12:46.411Z,10.00
2022-12-14T03:15:56.660Z,10.08
2022-12-14T03:19:12.609Z,9.43
2022-12-14T03:22:29.447Z,9.45
2022-12-14T03:25:44.382Z,8.78
2022-12-14T03:29:11.825Z,8.23
2022-12-14T03:32:25.899Z,10.55
2022-12-14T03:35:51.403Z,9.83
2022-12-14T03:39:05.700Z,8.80
2022-12-14T03:42:42.628Z,9.10
2022-12-14T03:46:10.601Z,9.25
2022-12-14T03:49:49.009Z,14.73
2022-12-14T03:53:29.547Z,14.40
2022-12-14T03:57:02.321Z,11.00
2022-12-14T04:00:28.432Z,10.08
2022-12-14T04:04:09.025Z,9.15
2022-12-14T04:07:35.361Z,11.78
2022-12-14T04:11:08.605Z,10.58
2022-12-14T04:14:51.495Z,9.30
2022-12-14T04:18:19.362Z,10.18
2022-12-14T04:21:58.967Z,10.53
2022-12-14T04:25:36.029Z,10.13
2022-12-14T04:29:10.727Z,9.60
2022-12-14T04:32:45.186Z,9.60
2022-12-14T04:35:59.849Z,13.65
2022-12-14T04:39:24.244Z,13.13
2022-12-14T04:42:40.752Z,11.90
2022-12-14T04:45:59.180Z,12.35
2022-12-14T04:49:42.993Z,11.35
2022-12-14T04:53:26.267Z,11.38
2022-12-14T04:57:17.401Z,10.78
2022-12-14T05:00:36.747Z,11.45
2022-12-14T05:04:14.534Z,10.32
2022-12-14T05:07:32.673Z,10.03
2022-12-14T05:11:04.740Z,10.53
2022-12-14T05:14:05.870Z,10.32
2022-12-14T05:17:12.806Z,12.03
2022-12-14T05:20:21.483Z,10.65
2022-12-14T05:23:31.293Z,10.53
2022-12-14T05:26:46.561Z,9.95
2022-12-14T05:29:55.063Z,10.90
2022-12-14T05:33:07.118Z,10.18
2022-12-14T05:36:18.308Z,10.00
2022-12-14T05:39:34.449Z,12.50
2022-12-14T05:42:48.699Z,11.95
2022-12-14T05:45:54.972Z,11.03
2022-12-14T05:49:19.632Z,10.48
2022-12-14T05:52:31.443Z,11.50
2022-12-14T05:56:18.666Z,15.63
2022-12-14T05:59:31.494Z,11.10
2022-12-14T06:02:38.833Z,11.55
2022-12-14T06:05:44.764Z,11.35
2022-12-14T06:09:24.379Z,12.73
2022-12-14T06:13:03.742Z,12.82
2022-12-14T06:16:28.902Z,12.13
2022-12-14T06:20:01.486Z,11.50
2022-12-14T06:23:14.419Z,11.88
2022-12-14T06:26:33.220Z,12.33
2022-12-14T06:33:25.580Z,11.25
2022-12-14T06:36:42.319Z,12.05
2022-12-14T06:40:09.089Z,12.60
2022-12-14T06:43:23.690Z,13.75
2022-12-14T06:46:44.225Z,14.15
2022-12-14T06:49:51.267Z,13.83
2022-12-14T06:53:14.090Z,16.07
2022-12-14T06:56:34.489Z,17.42
2022-12-14T06:59:55.318Z,20.88
2022-12-14T07:03:08.789Z,27.87
2022-12-14T07:06:41.607Z,24.87
2022-12-14T07:09:53.472Z,18.70
2022-12-14T07:13:10.632Z,20.02
2022-12-14T07:16:34.701Z,16.95
2022-12-14T07:19:52.573Z,17.80
2022-12-14T07:23:08.089Z,17.00
2022-12-14T07:29:51.885Z,19.10
2022-12-14T07:33:12.023Z,20.27
2022-12-14T07:36:43.371Z,17.77
2022-12-14T07:39:56.025Z,20.08
2022-12-14T07:43:24.211Z,24.33
2022-12-14T07:46:47.446Z,25.32
2022-12-14T07:50:00.544Z,17.52
2022-12-14T07:53:31.167Z,20.43
2022-12-14T07:56:44.604Z,17.77
2022-12-14T07:59:58.441Z,19.85
2022-12-14T08:03:16.352Z,22.37
2022-12-14T08:06:40.906Z,17.60
2022-12-14T08:13:44.641Z,18.90
2022-12-14T08:17:06.795Z,21.12
2022-12-14T08:20:22.964Z,21.65
2022-12-14T08:23:37.205Z,21.73
2022-12-14T08:30:27.093Z,20.48
2022-12-14T08:33:45.490Z,19.40
2022-12-14T08:37:00.914Z,18.70
2022-12-14T08:40:14.202Z,19.52
2022-12-14T08:43:35.249Z,19.57
2022-12-14T08:46:56.797Z,17.77
2022-12-14T08:50:12.531Z,18.52
2022-12-14T08:53:23.752Z,17.12
2022-12-14T08:56:35.519Z,17.57
2022-12-14T09:00:02.582Z,19.02
2022-12-14T09:03:20.219Z,18.67
2022-12-14T09:06:42.172Z,19.27
2022-12-14T09:09:53.046Z,18.62
2022-12-14T09:13:04.397Z,18.77
2022-12-14T09:16:32.026Z,18.12
2022-12-14T09:19:52.438Z,18.45
2022-12-14T09:23:09.943Z,17.82
2022-12-14T09:26:31.264Z,18.95
2022-12-14T09:29:59.087Z,19.15
2022-12-14T09:33:06.979Z,18.00
2022-12-14T09:36:28.576Z,23.38
2022-12-14T09:39:48.804Z,18.10
2022-12-14T09:43:18.983Z,17.80
2022-12-14T09:46:56.456Z,18.40
2022-12-14T09:50:34.307Z,18.98
2022-12-14T09:53:47.047Z,18.05
2022-12-14T09:57:03.429Z,19.45
2022-12-14T10:00:22.424Z,21.07
2022-12-14T10:03:41.969Z,19.02
2022-12-14T10:07:34.340Z,18.73
2022-12-14T10:25:38.382Z,22.35
2022-12-14T10:29:12.130Z,17.65
2022-12-14T10:36:58.708Z,17.40
2022-12-14T10:40:41.106Z,17.48
2022-12-14T10:44:37.052Z,16.87
2022-12-14T10:48:04.313Z,15.90
2022-12-14T10:51:25.885Z,16.80
2022-12-14T10:55:05.283Z,15.95
2022-12-14T10:58:19.922Z,18.23
2022-12-14T11:01:36.613Z,17.48
2022-12-14T11:05:22.139Z,25.15
2022-12-14T11:09:02.120Z,17.35
2022-12-14T11:12:36.154Z,18.82
2022-12-14T11:16:05.928Z,17.27
2022-12-14T11:23:34.565Z,17.55
2022-12-14T11:26:57.785Z,18.15
2022-12-14T11:31:02.268Z,17.25
2022-12-14T11:34:31.624Z,18.90
2022-12-14T11:37:45.426Z,18.55
2022-12-14T11:41:00.975Z,18.35
2022-12-14T11:48:50.713Z,18.10
2022-12-14T11:52:32.178Z,18.60
2022-12-14T11:55:44.770Z,27.05
2022-12-14T11:59:06.818Z,19.00
2022-12-14T12:03:16.870Z,18.02
2022-12-14T12:06:32.707Z,18.32
2022-12-14T12:09:55.953Z,18.17
2022-12-14T12:13:21.451Z,17.23
2022-12-14T12:16:39.880Z,17.82
2022-12-14T12:19:50.442Z,19.62
2022-12-14T12:23:14.505Z,20.12
2022-12-14T12:26:51.400Z,24.77
2022-12-14T12:30:10.392Z,23.75
2022-12-14T12:33:41.473Z,30.77
2022-12-14T12:37:25.429Z,41.57
2022-12-14T12:41:05.699Z,41.80
2022-12-14T12:48:22.171Z,26.17
2022-12-14T12:55:57.006Z,22.93
2022-12-14T12:59:17.858Z,23.30
2022-12-14T13:02:54.837Z,22.80
2022-12-14T13:06:10.209Z,20.32
2022-12-14T13:10:01.888Z,20.97
2022-12-14T13:13:20.286Z,33.67
2022-12-14T13:17:01.716Z,20.85
2022-12-14T13:21:23.823Z,22.07
2022-12-14T13:24:35.879Z,26.45
2022-12-14T13:28:36.391Z,31.33
2022-12-14T13:32:35.449Z,37.30
2022-12-14T13:36:51.753Z,37.73
2022-12-14T13:40:41.381Z,44.67
2022-12-14T13:44:44.200Z,44.58
2022-12-14T13:48:13.458Z,42.88
2022-12-14T13:51:41.917Z,41.50
2022-12-14T13:55:00.830Z,38.17
2022-12-14T13:58:34.589Z,34.45
2022-12-14T14:02:14.377Z,27.05
2022-12-14T14:05:49.593Z,21.55
2022-12-14T14:09:15.391Z,20.25
2022-12-14T14:12:48.846Z,19.65
2022-12-14T14:16:28.549Z,19.98
2022-12-14T14:19:49.372Z,19.57
2022-12-14T14:23:12.316Z,18.90
2022-12-14T14:26:59.180Z,20.90
2022-12-14T14:30:11.275Z,22.73
2022-12-14T14:34:12.589Z,21.90
2022-12-14T14:37:35.015Z,23.38
2022-12-14T14:41:18.147Z,23.40
2022-12-14T14:44:39.219Z,23.15
2022-12-14T14:48:02.222Z,22.07
2022-12-14T14:51:42.580Z,21.75
2022-12-14T14:55:21.774Z,23.12
2022-12-14T14:58:29.056Z,25.30
2022-12-14T15:01:49.547Z,24.67
2022-12-14T15:12:48.495Z,21.05
2022-12-14T15:16:06.768Z,21.20
2022-12-14T15:19:47.445Z,23.10
2022-12-14T15:22:58.339Z,21.30
2022-12-14T15:26:21.111Z,21.20
2022-12-14T15:33:18.845Z,20.92
2022-12-14T15:36:34.967Z,21.25
2022-12-14T15:39:52.295Z,22.27
2022-12-14T15:43:13.031Z,26.12
2022-12-14T15:46:37.201Z,30.40
2022-12-14T15:49:45.560Z,32.48
2022-12-14T15:53:03.778Z,33.30
2022-12-14T15:56:13.306Z,33.10
2022-12-14T15:59:40.630Z,31.95
2022-12-14T16:02:54.118Z,38.40
2022-12-14T16:06:12.865Z,36.50
2022-12-14T16:09:39.009Z,31.97
2022-12-14T16:12:59.669Z,29.77
2022-12-14T16:16:09.307Z,29.98
2022-12-14T16:19:28.690Z,37.28
2022-12-14T16:22:43.070Z,47.73
2022-12-14T16:26:18.837Z,43.45
2022-12-14T16:29:48.070Z,37.45
2022-12-14T16:32:59.599Z,33.23
2022-12-14T16:36:28.040Z,33.75
2022-12-14T16:39:42.061Z,33.02
2022-12-14T16:43:08.028Z,32.78
2022-12-14T16:46:25.119Z,34.27
2022-12-14T16:49:47.045Z,32.95
2022-12-14T16:53:04.164Z,30.32
2022-12-14T16:56:26.380Z,33.40
2022-12-14T17:02:55.581Z,33.80
2022-12-14T17:06:13.637Z,37.93
2022-12-14T17:09:29.029Z,35.38
2022-12-14T17:12:53.484Z,34.92
2022-12-14T17:16:21.259Z,35.00
2022-12-14T17:19:35.873Z,31.85
2022-12-14T17:22:49.925Z,33.10
2022-12-14T17:26:11.028Z,32.90
2022-12-14T17:29:24.326Z,33.38
2022-12-14T17:35:58.030Z,43.42
2022-12-14T17:39:09.329Z,42.03
2022-12-14T17:42:19.113Z,39.67
2022-12-14T17:45:46.216Z,38.78
2022-12-14T17:49:06.599Z,40.43
2022-12-14T17:52:18.701Z,41.63
2022-12-14T17:55:38.588Z,43.15
2022-12-14T17:58:47.926Z,42.03
2022-12-14T18:02:00.506Z,44.75
2022-12-14T18:05:14.728Z,38.80
2022-12-14T18:08:33.662Z,35.98
2022-12-14T18:12:14.380Z,33.75
2022-12-14T18:15:12.868Z,31.75
2022-12-14T18:18:39.600Z,30.95
2022-12-14T18:21:56.585Z,33.23
2022-12-14T18:25:09.007Z,31.90
2022-12-14T18:28:22.026Z,33.15
2022-12-14T18:31:40.196Z,32.50
2022-12-14T18:34:53.707Z,32.73
2022-12-14T18:38:01.560Z,32.53
2022-12-14T18:41:13.401Z,31.80
2022-12-14T18:44:24.147Z,32.90
2022-12-14T18:47:42.794Z,35.60
2022-12-14T18:50:56.501Z,41.18
2022-12-14T18:54:17.213Z,41.95
2022-12-14T18:57:31.303Z,41.55
2022-12-14T19:00:45.116Z,36.65
2022-12-14T19:03:59.241Z,35.90
2022-12-14T19:07:08.879Z,32.50
2022-12-14T19:10:29.469Z,30.25
2022-12-14T19:13:54.543Z,28.47
2022-12-14T19:17:18.028Z,27.40
2022-12-14T19:20:39.554Z,28.38
2022-12-14T19:23:59.600Z,30.62
2022-12-14T19:27:15.535Z,34.92
2022-12-14T19:30:25.531Z,42.53
2022-12-14T19:33:43.632Z,35.08
2022-12-14T19:36:57.098Z,29.32
2022-12-14T19:40:13.827Z,26.68
2022-12-14T19:43:24.744Z,23.60
2022-12-14T19:46:34.376Z,21.20
2022-12-14T19:49:48.837Z,22.02
2022-12-14T19:53:11.349Z,23.70
2022-12-14T19:56:25.523Z,22.55
2022-12-14T19:59:44.047Z,22.70
2022-12-14T20:03:01.654Z,24.25
2022-12-14T20:06:23.925Z,23.05
2022-12-14T20:09:42.931Z,22.35
2022-12-14T20:12:52.644Z,26.40
2022-12-14T20:16:09.290Z,21.93
2022-12-14T20:19:31.834Z,21.75
2022-12-14T20:22:44.015Z,21.85
2022-12-14T20:25:55.764Z,26.70
2022-12-14T20:29:23.357Z,23.98
2022-12-14T20:32:35.367Z,21.57
2022-12-14T20:35:48.015Z,22.60
2022-12-14T20:39:00.535Z,25.25
2022-12-14T20:42:14.935Z,23.15
2022-12-14T20:45:34.351Z,21.45
2022-12-14T20:48:56.599Z,20.17
2022-12-14T20:52:13.290Z,21.57
2022-12-14T20:55:23.648Z,21.87
2022-12-14T20:59:10.167Z,24.02
2022-12-14T21:02:47.435Z,23.02
2022-12-14T21:06:13.871Z,20.85
2022-12-14T21:09:46.259Z,20.60
2022-12-14T21:13:07.756Z,21.55
2022-12-14T21:16:44.269Z,22.45
